sensor_id;sensor_type;location;lat;lon;timestamp;P1;durP1;ratioP1;P2;durP2;ratioP2
21084;SDS011;34247;50.064;19.970;2023-06-24T00:00:18;2.45;;;2.13;;
21084;SDS011;34247;50.064;19.970;2023-06-24T00:01:52;2.67;;;2.28;;
21084;SDS011;34247;50.064;19.970;2023-06-24T00:03:26;2.65;;;2.30;;
21084;SDS011;34247;50.064;19.970;2023-06-24T00:05:00;2.65;;;2.30;;
21084;SDS011;34247;50.064;19.970;2023-06-24T00:06:33;3.95;;;2.50;;
21084;SDS011;34247;50.064;19.970;2023-06-24T00:08:07;3.25;;;2.30;;
21084;SDS011;34247;50.064;19.970;2023-06-24T00:09:44;3.35;;;1.80;;
21084;SDS011;34247;50.064;19.970;2023-06-24T00:11:18;2.53;;;2.00;;
21084;SDS011;34247;50.064;19.970;2023-06-24T00:12:51;2.05;;;1.80;;
21084;SDS011;34247;50.064;19.970;2023-06-24T00:14:25;2.40;;;2.20;;
21084;SDS011;34247;50.064;19.970;2023-06-24T00:16:02;3.58;;;2.10;;
21084;SDS011;34247;50.064;19.970;2023-06-24T00:17:39;2.65;;;1.98;;
21084;SDS011;34247;50.064;19.970;2023-06-24T00:19:12;3.30;;;2.10;;
21084;SDS011;34247;50.064;19.970;2023-06-24T00:20:49;4.70;;;2.05;;
21084;SDS011;34247;50.064;19.970;2023-06-24T00:22:23;2.33;;;2.13;;
21084;SDS011;34247;50.064;19.970;2023-06-24T00:23:58;3.38;;;2.33;;
21084;SDS011;34247;50.064;19.970;2023-06-24T00:25:33;3.17;;;2.40;;
21084;SDS011;34247;50.064;19.970;2023-06-24T00:27:07;2.10;;;1.90;;
21084;SDS011;34247;50.064;19.970;2023-06-24T00:28:47;3.10;;;2.47;;
21084;SDS011;34247;50.064;19.970;2023-06-24T00:30:22;2.38;;;2.17;;
21084;SDS011;34247;50.064;19.970;2023-06-24T00:31:55;2.05;;;1.95;;
21084;SDS011;34247;50.064;19.970;2023-06-24T00:33:28;2.00;;;1.80;;
21084;SDS011;34247;50.064;19.970;2023-06-24T00:35:01;3.25;;;2.08;;
21084;SDS011;34247;50.064;19.970;2023-06-24T00:36:38;2.60;;;2.20;;
21084;SDS011;34247;50.064;19.970;2023-06-24T00:38:12;1.83;;;1.73;;
21084;SDS011;34247;50.064;19.970;2023-06-24T00:39:46;2.22;;;2.03;;
21084;SDS011;34247;50.064;19.970;2023-06-24T00:41:21;2.10;;;1.90;;
21084;SDS011;34247;50.064;19.970;2023-06-24T00:42:55;3.40;;;2.55;;
21084;SDS011;34247;50.064;19.970;2023-06-24T00:44:29;3.58;;;2.53;;
21084;SDS011;34247;50.064;19.970;2023-06-24T00:46:08;4.65;;;1.95;;
21084;SDS011;34247;50.064;19.970;2023-06-24T00:47:41;4.13;;;1.95;;
21084;SDS011;34247;50.064;19.970;2023-06-24T00:49:16;6.10;;;2.55;;
21084;SDS011;34247;50.064;19.970;2023-06-24T00:50:49;1.95;;;1.70;;
21084;SDS011;34247;50.064;19.970;2023-06-24T00:52:23;7.75;;;2.35;;
21084;SDS011;34247;50.064;19.970;2023-06-24T00:53:56;5.30;;;2.25;;
21084;SDS011;34247;50.064;19.970;2023-06-24T00:55:32;3.28;;;2.40;;
21084;SDS011;34247;50.064;19.970;2023-06-24T00:57:06;2.40;;;2.00;;
21084;SDS011;34247;50.064;19.970;2023-06-24T00:58:42;4.25;;;2.22;;
21084;SDS011;34247;50.064;19.970;2023-06-24T01:00:19;3.20;;;2.00;;
21084;SDS011;34247;50.064;19.970;2023-06-24T01:01:55;3.58;;;2.30;;
21084;SDS011;34247;50.064;19.970;2023-06-24T01:04:03;4.53;;;2.13;;
21084;SDS011;34247;50.064;19.970;2023-06-24T01:05:45;2.67;;;2.17;;
21084;SDS011;34247;50.064;19.970;2023-06-24T01:07:18;2.28;;;2.08;;
21084;SDS011;34247;50.064;19.970;2023-06-24T01:08:53;3.13;;;1.98;;
21084;SDS011;34247;50.064;19.970;2023-06-24T01:10:28;2.30;;;2.10;;
21084;SDS011;34247;50.064;19.970;2023-06-24T01:12:01;2.10;;;1.90;;
21084;SDS011;34247;50.064;19.970;2023-06-24T01:13:36;4.95;;;2.47;;
21084;SDS011;34247;50.064;19.970;2023-06-24T01:15:10;7.63;;;2.20;;
21084;SDS011;34247;50.064;19.970;2023-06-24T01:18:48;2.25;;;2.00;;
21084;SDS011;34247;50.064;19.970;2023-06-24T01:20:27;3.75;;;2.20;;
21084;SDS011;34247;50.064;19.970;2023-06-24T01:23:06;2.25;;;1.75;;
21084;SDS011;34247;50.064;19.970;2023-06-24T01:24:19;1.90;;;1.77;;
21084;SDS011;34247;50.064;19.970;2023-06-24T01:30:32;2.38;;;2.00;;
21084;SDS011;34247;50.064;19.970;2023-06-24T01:32:33;1.98;;;1.83;;
21084;SDS011;34247;50.064;19.970;2023-06-24T01:36:17;2.78;;;2.00;;
21084;SDS011;34247;50.064;19.970;2023-06-24T01:37:58;4.18;;;1.88;;
21084;SDS011;34247;50.064;19.970;2023-06-24T01:39:47;4.93;;;2.05;;
21084;SDS011;34247;50.064;19.970;2023-06-24T01:41:34;2.35;;;2.15;;
21084;SDS011;34247;50.064;19.970;2023-06-24T01:43:15;2.40;;;2.20;;
21084;SDS011;34247;50.064;19.970;2023-06-24T01:44:51;2.70;;;1.95;;
21084;SDS011;34247;50.064;19.970;2023-06-24T01:46:26;2.10;;;1.90;;
21084;SDS011;34247;50.064;19.970;2023-06-24T01:48:15;2.83;;;2.22;;
21084;SDS011;34247;50.064;19.970;2023-06-24T01:49:55;3.33;;;2.10;;
21084;SDS011;34247;50.064;19.970;2023-06-24T01:51:33;2.35;;;2.15;;
21084;SDS011;34247;50.064;19.970;2023-06-24T01:53:13;5.30;;;2.13;;
21084;SDS011;34247;50.064;19.970;2023-06-24T01:54:52;2.00;;;1.80;;
21084;SDS011;34247;50.064;19.970;2023-06-24T01:56:33;5.88;;;2.22;;
21084;SDS011;34247;50.064;19.970;2023-06-24T01:58:19;3.58;;;1.90;;
21084;SDS011;34247;50.064;19.970;2023-06-24T02:00:04;2.85;;;2.05;;
21084;SDS011;34247;50.064;19.970;2023-06-24T02:01:54;3.72;;;1.85;;
21084;SDS011;34247;50.064;19.970;2023-06-24T02:03:38;3.17;;;2.17;;
21084;SDS011;34247;50.064;19.970;2023-06-24T02:05:17;5.68;;;1.80;;
21084;SDS011;34247;50.064;19.970;2023-06-24T02:07:01;2.35;;;1.67;;
21084;SDS011;34247;50.064;19.970;2023-06-24T02:08:45;1.73;;;1.63;;
21084;SDS011;34247;50.064;19.970;2023-06-24T02:10:25;2.58;;;2.22;;
21084;SDS011;34247;50.064;19.970;2023-06-24T02:12:07;8.90;;;3.10;;
21084;SDS011;34247;50.064;19.970;2023-06-24T02:13:45;3.63;;;3.00;;
21084;SDS011;34247;50.064;19.970;2023-06-24T02:15:19;2.95;;;2.70;;
21084;SDS011;34247;50.064;19.970;2023-06-24T02:16:58;2.85;;;2.65;;
21084;SDS011;34247;50.064;19.970;2023-06-24T02:18:39;5.43;;;3.20;;
21084;SDS011;34247;50.064;19.970;2023-06-24T02:20:24;3.60;;;2.30;;
21084;SDS011;34247;50.064;19.970;2023-06-24T02:22:01;4.22;;;2.70;;
21084;SDS011;34247;50.064;19.970;2023-06-24T02:23:37;3.30;;;2.25;;
21084;SDS011;34247;50.064;19.970;2023-06-24T02:25:22;2.85;;;2.30;;
21084;SDS011;34247;50.064;19.970;2023-06-24T02:27:00;8.18;;;2.42;;
21084;SDS011;34247;50.064;19.970;2023-06-24T02:28:38;6.47;;;2.38;;
21084;SDS011;34247;50.064;19.970;2023-06-24T02:30:20;5.00;;;2.40;;
21084;SDS011;34247;50.064;19.970;2023-06-24T02:32:04;2.67;;;2.17;;
21084;SDS011;34247;50.064;19.970;2023-06-24T02:33:48;3.80;;;2.20;;
21084;SDS011;34247;50.064;19.970;2023-06-24T02:35:31;2.33;;;1.92;;
21084;SDS011;34247;50.064;19.970;2023-06-24T02:37:09;3.28;;;2.97;;
21084;SDS011;34247;50.064;19.970;2023-06-24T02:38:42;2.78;;;1.83;;
21084;SDS011;34247;50.064;19.970;2023-06-24T02:42:12;2.53;;;2.20;;
21084;SDS011;34247;50.064;19.970;2023-06-24T02:43:49;2.80;;;2.20;;
21084;SDS011;34247;50.064;19.970;2023-06-24T02:45:23;3.45;;;1.75;;
21084;SDS011;34247;50.064;19.970;2023-06-24T02:47:00;1.85;;;1.60;;
21084;SDS011;34247;50.064;19.970;2023-06-24T02:48:35;2.42;;;2.22;;
21084;SDS011;34247;50.064;19.970;2023-06-24T02:50:17;3.30;;;2.13;;
21084;SDS011;34247;50.064;19.970;2023-06-24T02:52:08;2.35;;;2.03;;
21084;SDS011;34247;50.064;19.970;2023-06-24T02:53:42;2.63;;;1.75;;
21084;SDS011;34247;50.064;19.970;2023-06-24T02:55:20;1.70;;;1.60;;
21084;SDS011;34247;50.064;19.970;2023-06-24T02:57:00;4.72;;;1.98;;
21084;SDS011;34247;50.064;19.970;2023-06-24T02:58:42;2.40;;;2.17;;
21084;SDS011;34247;50.064;19.970;2023-06-24T03:00:30;3.28;;;2.13;;
21084;SDS011;34247;50.064;19.970;2023-06-24T03:02:03;3.10;;;2.05;;
21084;SDS011;34247;50.064;19.970;2023-06-24T03:03:38;4.93;;;2.33;;
21084;SDS011;34247;50.064;19.970;2023-06-24T03:05:14;2.50;;;2.00;;
21084;SDS011;34247;50.064;19.970;2023-06-24T03:06:49;2.42;;;1.90;;
21084;SDS011;34247;50.064;19.970;2023-06-24T03:08:24;6.20;;;2.10;;
21084;SDS011;34247;50.064;19.970;2023-06-24T03:09:57;4.60;;;2.10;;
21084;SDS011;34247;50.064;19.970;2023-06-24T03:11:30;3.40;;;1.92;;
21084;SDS011;34247;50.064;19.970;2023-06-24T03:13:03;4.47;;;1.80;;
21084;SDS011;34247;50.064;19.970;2023-06-24T03:16:42;2.85;;;1.73;;
21084;SDS011;34247;50.064;19.970;2023-06-24T03:18:22;2.05;;;1.63;;
21084;SDS011;34247;50.064;19.970;2023-06-24T03:20:13;1.85;;;1.63;;
21084;SDS011;34247;50.064;19.970;2023-06-24T03:21:55;2.17;;;2.00;;
21084;SDS011;34247;50.064;19.970;2023-06-24T03:23:28;2.75;;;2.05;;
21084;SDS011;34247;50.064;19.970;2023-06-24T03:25:03;2.25;;;2.05;;
21084;SDS011;34247;50.064;19.970;2023-06-24T03:26:46;3.05;;;1.95;;
21084;SDS011;34247;50.064;19.970;2023-06-24T03:28:20;4.75;;;1.90;;
21084;SDS011;34247;50.064;19.970;2023-06-24T03:29:55;3.25;;;1.85;;
21084;SDS011;34247;50.064;19.970;2023-06-24T03:31:32;3.90;;;2.10;;
21084;SDS011;34247;50.064;19.970;2023-06-24T03:33:18;4.75;;;2.28;;
21084;SDS011;34247;50.064;19.970;2023-06-24T03:35:06;2.53;;;1.77;;
21084;SDS011;34247;50.064;19.970;2023-06-24T03:36:48;4.95;;;2.10;;
21084;SDS011;34247;50.064;19.970;2023-06-24T03:38:31;3.05;;;2.55;;
21084;SDS011;34247;50.064;19.970;2023-06-24T03:40:09;2.63;;;2.00;;
21084;SDS011;34247;50.064;19.970;2023-06-24T03:41:58;2.58;;;1.88;;
21084;SDS011;34247;50.064;19.970;2023-06-24T03:43:32;6.78;;;1.95;;
21084;SDS011;34247;50.064;19.970;2023-06-24T03:45:26;2.15;;;1.77;;
21084;SDS011;34247;50.064;19.970;2023-06-24T03:47:03;2.20;;;2.00;;
21084;SDS011;34247;50.064;19.970;2023-06-24T03:48:38;4.28;;;2.20;;
21084;SDS011;34247;50.064;19.970;2023-06-24T03:50:16;2.40;;;1.67;;
21084;SDS011;34247;50.064;19.970;2023-06-24T03:52:11;2.75;;;1.77;;
21084;SDS011;34247;50.064;19.970;2023-06-24T03:54:05;2.25;;;1.67;;
21084;SDS011;34247;50.064;19.970;2023-06-24T03:56:11;2.42;;;1.85;;
21084;SDS011;34247;50.064;19.970;2023-06-24T03:57:57;2.25;;;1.65;;
21084;SDS011;34247;50.064;19.970;2023-06-24T03:59:51;3.17;;;2.08;;
21084;SDS011;34247;50.064;19.970;2023-06-24T04:01:43;2.17;;;1.70;;
21084;SDS011;34247;50.064;19.970;2023-06-24T04:03:33;5.93;;;1.80;;
21084;SDS011;34247;50.064;19.970;2023-06-24T04:05:13;2.50;;;1.88;;
21084;SDS011;34247;50.064;19.970;2023-06-24T04:06:55;1.95;;;1.50;;
21084;SDS011;34247;50.064;19.970;2023-06-24T04:08:33;2.80;;;1.92;;
21084;SDS011;34247;50.064;19.970;2023-06-24T04:10:12;2.13;;;1.95;;
21084;SDS011;34247;50.064;19.970;2023-06-24T04:11:59;2.03;;;1.70;;
21084;SDS011;34247;50.064;19.970;2023-06-24T04:13:33;2.35;;;1.80;;
21084;SDS011;34247;50.064;19.970;2023-06-24T04:15:13;2.63;;;1.90;;
21084;SDS011;34247;50.064;19.970;2023-06-24T04:16:57;2.28;;;2.08;;
21084;SDS011;34247;50.064;19.970;2023-06-24T04:18:31;4.43;;;1.98;;
21084;SDS011;34247;50.064;19.970;2023-06-24T04:20:29;4.32;;;2.10;;
21084;SDS011;34247;50.064;19.970;2023-06-24T04:22:18;1.80;;;1.67;;
21084;SDS011;34247;50.064;19.970;2023-06-24T04:23:58;5.80;;;1.92;;
21084;SDS011;34247;50.064;19.970;2023-06-24T04:25:34;3.03;;;1.83;;
21084;SDS011;34247;50.064;19.970;2023-06-24T04:27:09;1.55;;;1.42;;
21084;SDS011;34247;50.064;19.970;2023-06-24T04:28:49;2.10;;;1.75;;
21084;SDS011;34247;50.064;19.970;2023-06-24T04:30:43;1.75;;;1.65;;
21084;SDS011;34247;50.064;19.970;2023-06-24T04:32:36;2.67;;;1.73;;
21084;SDS011;34247;50.064;19.970;2023-06-24T04:34:14;4.40;;;2.00;;
21084;SDS011;34247;50.064;19.970;2023-06-24T04:36:00;3.75;;;2.10;;
21084;SDS011;34247;50.064;19.970;2023-06-24T04:37:50;3.78;;;1.77;;
21084;SDS011;34247;50.064;19.970;2023-06-24T04:39:30;4.28;;;2.08;;
21084;SDS011;34247;50.064;19.970;2023-06-24T04:41:08;3.78;;;1.70;;
21084;SDS011;34247;50.064;19.970;2023-06-24T04:42:52;2.13;;;1.83;;
21084;SDS011;34247;50.064;19.970;2023-06-24T04:44:33;1.77;;;1.58;;
21084;SDS011;34247;50.064;19.970;2023-06-24T04:46:24;2.72;;;1.85;;
21084;SDS011;34247;50.064;19.970;2023-06-24T04:48:07;1.73;;;1.63;;
21084;SDS011;34247;50.064;19.970;2023-06-24T04:49:55;1.95;;;1.63;;
21084;SDS011;34247;50.064;19.970;2023-06-24T04:51:28;2.85;;;2.20;;
21084;SDS011;34247;50.064;19.970;2023-06-24T04:53:23;1.58;;;1.48;;
21084;SDS011;34247;50.064;19.970;2023-06-24T04:55:03;2.53;;;1.90;;
21084;SDS011;34247;50.064;19.970;2023-06-24T04:57:14;2.40;;;2.20;;
21084;SDS011;34247;50.064;19.970;2023-06-24T04:59:11;2.90;;;2.60;;
21084;SDS011;34247;50.064;19.970;2023-06-24T05:00:51;1.90;;;1.75;;
21084;SDS011;34247;50.064;19.970;2023-06-24T05:02:24;1.60;;;1.33;;
21084;SDS011;34247;50.064;19.970;2023-06-24T05:03:58;1.98;;;1.60;;
21084;SDS011;34247;50.064;19.970;2023-06-24T05:05:31;1.92;;;1.67;;
21084;SDS011;34247;50.064;19.970;2023-06-24T05:59:16;5.43;;;3.10;;
21084;SDS011;34247;50.064;19.970;2023-06-24T06:00:55;3.35;;;2.50;;
21084;SDS011;34247;50.064;19.970;2023-06-24T06:02:40;7.97;;;2.70;;
21084;SDS011;34247;50.064;19.970;2023-06-24T06:04:28;4.22;;;2.60;;
21084;SDS011;34247;50.064;19.970;2023-06-24T06:06:12;3.55;;;2.67;;
21084;SDS011;34247;50.064;19.970;2023-06-24T06:08:07;3.25;;;2.35;;
21084;SDS011;34247;50.064;19.970;2023-06-24T06:09:55;2.92;;;2.40;;
21084;SDS011;34247;50.064;19.970;2023-06-24T06:11:40;4.97;;;2.40;;
21084;SDS011;34247;50.064;19.970;2023-06-24T06:13:17;2.50;;;2.33;;
21084;SDS011;34247;50.064;19.970;2023-06-24T06:14:57;3.78;;;2.58;;
21084;SDS011;34247;50.064;19.970;2023-06-24T06:16:38;2.92;;;2.30;;
21084;SDS011;34247;50.064;19.970;2023-06-24T06:18:18;4.57;;;2.50;;
21084;SDS011;34247;50.064;19.970;2023-06-24T06:19:57;3.13;;;2.17;;
21084;SDS011;34247;50.064;19.970;2023-06-24T06:22:35;2.95;;;2.67;;
21084;SDS011;34247;50.064;19.970;2023-06-24T06:23:52;6.25;;;2.90;;
21084;SDS011;34247;50.064;19.970;2023-06-24T06:25:30;7.13;;;3.40;;
21084;SDS011;34247;50.064;19.970;2023-06-24T06:27:13;3.40;;;2.30;;
21084;SDS011;34247;50.064;19.970;2023-06-24T06:28:50;5.90;;;2.72;;
21084;SDS011;34247;50.064;19.970;2023-06-24T06:30:25;5.00;;;2.30;;
21084;SDS011;34247;50.064;19.970;2023-06-24T06:32:09;3.00;;;2.10;;
21084;SDS011;34247;50.064;19.970;2023-06-24T06:33:44;5.93;;;2.95;;
21084;SDS011;34247;50.064;19.970;2023-06-24T06:35:21;3.97;;;2.50;;
21084;SDS011;34247;50.064;19.970;2023-06-24T06:36:55;3.28;;;2.58;;
21084;SDS011;34247;50.064;19.970;2023-06-24T06:38:33;5.05;;;3.15;;
21084;SDS011;34247;50.064;19.970;2023-06-24T06:40:14;3.38;;;2.95;;
21084;SDS011;34247;50.064;19.970;2023-06-24T06:41:50;3.55;;;2.33;;
21084;SDS011;34247;50.064;19.970;2023-06-24T06:43:29;3.42;;;2.80;;
21084;SDS011;34247;50.064;19.970;2023-06-24T06:45:22;4.72;;;3.00;;
21084;SDS011;34247;50.064;19.970;2023-06-24T06:47:02;4.57;;;2.72;;
21084;SDS011;34247;50.064;19.970;2023-06-24T06:48:39;5.60;;;2.97;;
21084;SDS011;34247;50.064;19.970;2023-06-24T06:50:13;5.40;;;3.53;;
21084;SDS011;34247;50.064;19.970;2023-06-24T06:51:46;4.22;;;2.85;;
21084;SDS011;34247;50.064;19.970;2023-06-24T06:53:27;4.18;;;2.78;;
21084;SDS011;34247;50.064;19.970;2023-06-24T06:55:10;4.47;;;3.25;;
21084;SDS011;34247;50.064;19.970;2023-06-24T06:56:49;4.68;;;3.15;;
21084;SDS011;34247;50.064;19.970;2023-06-24T06:58:26;4.90;;;3.63;;
21084;SDS011;34247;50.064;19.970;2023-06-24T07:00:13;4.15;;;2.92;;
21084;SDS011;34247;50.064;19.970;2023-06-24T07:01:47;5.10;;;3.83;;
21084;SDS011;34247;50.064;19.970;2023-06-24T07:03:20;8.30;;;4.00;;
21084;SDS011;34247;50.064;19.970;2023-06-24T07:04:53;3.90;;;3.13;;
21084;SDS011;34247;50.064;19.970;2023-06-24T07:06:26;8.25;;;3.80;;
21084;SDS011;34247;50.064;19.970;2023-06-24T07:08:00;5.15;;;3.50;;
21084;SDS011;34247;50.064;19.970;2023-06-24T07:09:33;7.50;;;3.60;;
21084;SDS011;34247;50.064;19.970;2023-06-24T07:11:07;7.03;;;4.30;;
21084;SDS011;34247;50.064;19.970;2023-06-24T07:12:41;5.50;;;3.80;;
21084;SDS011;34247;50.064;19.970;2023-06-24T07:14:23;7.60;;;4.43;;
21084;SDS011;34247;50.064;19.970;2023-06-24T07:16:17;8.93;;;3.67;;
21084;SDS011;34247;50.064;19.970;2023-06-24T07:18:01;9.52;;;3.88;;
21084;SDS011;34247;50.064;19.970;2023-06-24T07:19:47;8.18;;;4.05;;
21084;SDS011;34247;50.064;19.970;2023-06-24T07:21:40;9.45;;;4.35;;
21084;SDS011;34247;50.064;19.970;2023-06-24T07:23:13;11.63;;;4.72;;
21084;SDS011;34247;50.064;19.970;2023-06-24T07:24:55;11.68;;;5.07;;
21084;SDS011;34247;50.064;19.970;2023-06-24T07:26:38;8.68;;;4.13;;
21084;SDS011;34247;50.064;19.970;2023-06-24T07:28:31;9.65;;;5.75;;
21084;SDS011;34247;50.064;19.970;2023-06-24T07:30:08;13.85;;;6.15;;
21084;SDS011;34247;50.064;19.970;2023-06-24T07:31:49;10.43;;;5.53;;
21084;SDS011;34247;50.064;19.970;2023-06-24T07:33:31;13.55;;;6.30;;
21084;SDS011;34247;50.064;19.970;2023-06-24T07:35:14;12.75;;;5.78;;
21084;SDS011;34247;50.064;19.970;2023-06-24T07:36:53;19.38;;;6.75;;
21084;SDS011;34247;50.064;19.970;2023-06-24T07:38:32;11.80;;;5.95;;
21084;SDS011;34247;50.064;19.970;2023-06-24T07:40:14;12.30;;;6.97;;
21084;SDS011;34247;50.064;19.970;2023-06-24T07:41:56;12.27;;;5.53;;
21084;SDS011;34247;50.064;19.970;2023-06-24T07:43:29;13.82;;;5.85;;
21084;SDS011;34247;50.064;19.970;2023-06-24T07:45:15;14.35;;;5.85;;
21084;SDS011;34247;50.064;19.970;2023-06-24T07:47:00;15.18;;;6.07;;
21084;SDS011;34247;50.064;19.970;2023-06-24T07:48:39;12.18;;;6.50;;
21084;SDS011;34247;50.064;19.970;2023-06-24T07:50:30;8.35;;;4.95;;
21084;SDS011;34247;50.064;19.970;2023-06-24T07:52:22;9.98;;;6.35;;
21084;SDS011;34247;50.064;19.970;2023-06-24T07:54:08;7.40;;;5.15;;
21084;SDS011;34247;50.064;19.970;2023-06-24T07:55:45;10.43;;;6.18;;
21084;SDS011;34247;50.064;19.970;2023-06-24T07:57:23;9.95;;;5.32;;
21084;SDS011;34247;50.064;19.970;2023-06-24T07:58:56;8.65;;;4.88;;
21084;SDS011;34247;50.064;19.970;2023-06-24T08:00:29;8.48;;;5.70;;
21084;SDS011;34247;50.064;19.970;2023-06-24T08:02:07;7.70;;;3.90;;
21084;SDS011;34247;50.064;19.970;2023-06-24T08:03:40;5.38;;;3.67;;
21084;SDS011;34247;50.064;19.970;2023-06-24T08:05:14;6.82;;;4.13;;
21084;SDS011;34247;50.064;19.970;2023-06-24T08:06:50;5.10;;;4.03;;
21084;SDS011;34247;50.064;19.970;2023-06-24T08:08:41;9.48;;;4.40;;
21084;SDS011;34247;50.064;19.970;2023-06-24T08:10:19;10.02;;;5.18;;
21084;SDS011;34247;50.064;19.970;2023-06-24T08:12:03;14.32;;;4.45;;
21084;SDS011;34247;50.064;19.970;2023-06-24T08:13:39;5.82;;;3.80;;
21084;SDS011;34247;50.064;19.970;2023-06-24T08:15:13;7.07;;;4.15;;
21084;SDS011;34247;50.064;19.970;2023-06-24T08:16:52;4.53;;;3.50;;
21084;SDS011;34247;50.064;19.970;2023-06-24T08:18:33;5.60;;;3.40;;
21084;SDS011;34247;50.064;19.970;2023-06-24T08:20:07;5.50;;;3.83;;
21084;SDS011;34247;50.064;19.970;2023-06-24T08:21:41;5.00;;;3.30;;
21084;SDS011;34247;50.064;19.970;2023-06-24T08:23:15;6.18;;;3.60;;
21084;SDS011;34247;50.064;19.970;2023-06-24T08:24:48;5.82;;;3.75;;
21084;SDS011;34247;50.064;19.970;2023-06-24T08:26:24;4.40;;;3.00;;
21084;SDS011;34247;50.064;19.970;2023-06-24T08:28:01;7.40;;;3.60;;
21084;SDS011;34247;50.064;19.970;2023-06-24T08:29:34;8.35;;;4.13;;
21084;SDS011;34247;50.064;19.970;2023-06-24T08:31:10;5.15;;;3.45;;
21084;SDS011;34247;50.064;19.970;2023-06-24T08:32:43;5.97;;;3.28;;
21084;SDS011;34247;50.064;19.970;2023-06-24T08:34:17;5.72;;;3.50;;
21084;SDS011;34247;50.064;19.970;2023-06-24T08:35:50;4.97;;;3.38;;
21084;SDS011;34247;50.064;19.970;2023-06-24T08:37:23;5.60;;;3.50;;
21084;SDS011;34247;50.064;19.970;2023-06-24T08:38:59;5.00;;;3.40;;
21084;SDS011;34247;50.064;19.970;2023-06-24T08:40:41;4.43;;;2.83;;
21084;SDS011;34247;50.064;19.970;2023-06-24T08:42:23;6.10;;;3.70;;
21084;SDS011;34247;50.064;19.970;2023-06-24T08:44:10;5.35;;;3.60;;
21084;SDS011;34247;50.064;19.970;2023-06-24T08:45:43;10.25;;;3.22;;
21084;SDS011;34247;50.064;19.970;2023-06-24T08:47:30;2.80;;;2.60;;
21084;SDS011;34247;50.064;19.970;2023-06-24T08:51:02;4.57;;;2.35;;
21084;SDS011;34247;50.064;19.970;2023-06-24T08:52:45;4.63;;;3.40;;
21084;SDS011;34247;50.064;19.970;2023-06-24T08:54:28;4.53;;;2.95;;
21084;SDS011;34247;50.064;19.970;2023-06-24T08:56:13;3.78;;;3.20;;
21084;SDS011;34247;50.064;19.970;2023-06-24T08:57:54;5.40;;;3.08;;
21084;SDS011;34247;50.064;19.970;2023-06-24T08:59:27;5.05;;;3.53;;
21084;SDS011;34247;50.064;19.970;2023-06-24T09:01:01;3.88;;;3.20;;
21084;SDS011;34247;50.064;19.970;2023-06-24T09:02:38;7.18;;;3.28;;
21084;SDS011;34247;50.064;19.970;2023-06-24T09:04:12;4.95;;;3.35;;
21084;SDS011;34247;50.064;19.970;2023-06-24T09:05:45;4.03;;;3.28;;
21084;SDS011;34247;50.064;19.970;2023-06-24T09:07:28;5.53;;;3.60;;
21084;SDS011;34247;50.064;19.970;2023-06-24T09:09:01;4.97;;;3.08;;
21084;SDS011;34247;50.064;19.970;2023-06-24T09:10:37;4.53;;;3.50;;
21084;SDS011;34247;50.064;19.970;2023-06-24T09:12:12;3.42;;;2.80;;
21084;SDS011;34247;50.064;19.970;2023-06-24T09:13:50;10.27;;;3.95;;
21084;SDS011;34247;50.064;19.970;2023-06-24T09:15:37;4.68;;;3.40;;
21084;SDS011;34247;50.064;19.970;2023-06-24T09:17:10;7.72;;;3.25;;
21084;SDS011;34247;50.064;19.970;2023-06-24T09:18:47;4.57;;;2.88;;
21084;SDS011;34247;50.064;19.970;2023-06-24T09:20:32;4.70;;;3.13;;
21084;SDS011;34247;50.064;19.970;2023-06-24T09:22:09;6.50;;;3.97;;
21084;SDS011;34247;50.064;19.970;2023-06-24T09:23:42;4.55;;;3.40;;
21084;SDS011;34247;50.064;19.970;2023-06-24T09:25:16;5.15;;;2.80;;
21084;SDS011;34247;50.064;19.970;2023-06-24T09:26:50;4.68;;;2.63;;
21084;SDS011;34247;50.064;19.970;2023-06-24T09:28:33;4.75;;;3.05;;
21084;SDS011;34247;50.064;19.970;2023-06-24T09:30:19;5.88;;;3.05;;
21084;SDS011;34247;50.064;19.970;2023-06-24T09:31:55;5.28;;;4.13;;
21084;SDS011;34247;50.064;19.970;2023-06-24T09:33:28;3.78;;;2.78;;
21084;SDS011;34247;50.064;19.970;2023-06-24T09:35:02;4.13;;;2.88;;
21084;SDS011;34247;50.064;19.970;2023-06-24T09:36:41;5.68;;;3.42;;
21084;SDS011;34247;50.064;19.970;2023-06-24T09:38:22;6.15;;;3.67;;
21084;SDS011;34247;50.064;19.970;2023-06-24T09:40:09;5.90;;;3.15;;
21084;SDS011;34247;50.064;19.970;2023-06-24T09:41:49;3.92;;;3.17;;
21084;SDS011;34247;50.064;19.970;2023-06-24T09:43:26;3.78;;;2.58;;
21084;SDS011;34247;50.064;19.970;2023-06-24T09:45:00;3.92;;;2.30;;
21084;SDS011;34247;50.064;19.970;2023-06-24T09:46:38;5.53;;;2.80;;
21084;SDS011;34247;50.064;19.970;2023-06-24T09:48:15;5.50;;;2.92;;
21084;SDS011;34247;50.064;19.970;2023-06-24T09:49:48;5.40;;;2.95;;
21084;SDS011;34247;50.064;19.970;2023-06-24T09:51:21;9.30;;;2.83;;
21084;SDS011;34247;50.064;19.970;2023-06-24T09:52:57;6.70;;;3.20;;
21084;SDS011;34247;50.064;19.970;2023-06-24T09:54:31;3.05;;;2.08;;
21084;SDS011;34247;50.064;19.970;2023-06-24T09:56:09;4.30;;;2.58;;
21084;SDS011;34247;50.064;19.970;2023-06-24T09:57:49;3.50;;;2.65;;
21084;SDS011;34247;50.064;19.970;2023-06-24T09:59:29;2.53;;;2.13;;
21084;SDS011;34247;50.064;19.970;2023-06-24T10:01:13;5.25;;;2.92;;
21084;SDS011;34247;50.064;19.970;2023-06-24T10:02:51;3.63;;;2.63;;
21084;SDS011;34247;50.064;19.970;2023-06-24T10:04:30;5.65;;;2.70;;
21084;SDS011;34247;50.064;19.970;2023-06-24T10:06:05;3.08;;;2.35;;
21084;SDS011;34247;50.064;19.970;2023-06-24T10:07:44;7.18;;;2.30;;
21084;SDS011;34247;50.064;19.970;2023-06-24T10:09:21;4.20;;;3.30;;
21084;SDS011;34247;50.064;19.970;2023-06-24T10:10:55;3.10;;;2.72;;
21084;SDS011;34247;50.064;19.970;2023-06-24T10:12:28;4.38;;;2.90;;
21084;SDS011;34247;50.064;19.970;2023-06-24T10:14:02;5.25;;;2.72;;
21084;SDS011;34247;50.064;19.970;2023-06-24T10:15:35;4.50;;;2.88;;
21084;SDS011;34247;50.064;19.970;2023-06-24T10:17:08;4.35;;;3.05;;
21084;SDS011;34247;50.064;19.970;2023-06-24T10:18:46;9.13;;;3.80;;
21084;SDS011;34247;50.064;19.970;2023-06-24T10:20:26;6.32;;;2.85;;
21084;SDS011;34247;50.064;19.970;2023-06-24T10:22:00;5.20;;;3.45;;
21084;SDS011;34247;50.064;19.970;2023-06-24T10:23:33;6.18;;;2.63;;
21084;SDS011;34247;50.064;19.970;2023-06-24T10:25:23;3.50;;;2.90;;
21084;SDS011;34247;50.064;19.970;2023-06-24T10:29:08;3.75;;;3.05;;
21084;SDS011;34247;50.064;19.970;2023-06-24T10:30:53;5.57;;;2.58;;
21084;SDS011;34247;50.064;19.970;2023-06-24T10:32:28;4.65;;;2.53;;
21084;SDS011;34247;50.064;19.970;2023-06-24T10:35:00;5.80;;;2.80;;
21084;SDS011;34247;50.064;19.970;2023-06-24T10:36:31;3.67;;;2.47;;
21084;SDS011;34247;50.064;19.970;2023-06-24T10:38:05;3.95;;;2.20;;
21084;SDS011;34247;50.064;19.970;2023-06-24T10:39:52;2.90;;;2.40;;
21084;SDS011;34247;50.064;19.970;2023-06-24T10:41:30;4.68;;;2.67;;
21084;SDS011;34247;50.064;19.970;2023-06-24T10:46:53;4.90;;;2.90;;
21084;SDS011;34247;50.064;19.970;2023-06-24T10:48:26;6.97;;;2.63;;
21084;SDS011;34247;50.064;19.970;2023-06-24T10:49:59;8.02;;;2.70;;
21084;SDS011;34247;50.064;19.970;2023-06-24T10:51:33;6.80;;;2.80;;
21084;SDS011;34247;50.064;19.970;2023-06-24T10:53:07;8.10;;;2.50;;
21084;SDS011;34247;50.064;19.970;2023-06-24T10:54:41;3.95;;;2.95;;
21084;SDS011;34247;50.064;19.970;2023-06-24T10:56:14;3.55;;;2.40;;
21084;SDS011;34247;50.064;19.970;2023-06-24T10:57:51;6.18;;;3.08;;
21084;SDS011;34247;50.064;19.970;2023-06-24T10:59:25;4.63;;;2.63;;
21084;SDS011;34247;50.064;19.970;2023-06-24T11:01:08;2.97;;;2.50;;
21084;SDS011;34247;50.064;19.970;2023-06-24T11:02:43;5.80;;;2.90;;